createdAt,value
2022-11-20T00:02:18.331Z,100782.02
2022-11-20T00:04:46.956Z,100796.42
2022-11-20T00:07:16.139Z,100808.52
2022-11-20T00:09:45.446Z,100821.56
2022-11-20T00:12:14.400Z,100825.44
2022-11-20T00:14:43.260Z,100835.70
2022-11-20T00:17:12.456Z,100825.33
2022-11-20T00:19:41.566Z,100817.64
2022-11-20T00:22:10.402Z,100812.86
2022-11-20T00:24:43.204Z,100815.83
2022-11-20T00:27:11.404Z,100818.30
2022-11-20T00:29:42.101Z,100815.13
2022-11-20T00:32:11.582Z,100818.20
2022-11-20T00:34:41.997Z,100831.62
2022-11-20T00:37:11.528Z,100845.71
2022-11-20T00:39:41.152Z,100854.36
2022-11-20T00:42:10.822Z,100859.78
2022-11-20T00:44:40.575Z,100857.73
2022-11-20T00:47:10.483Z,100848.92
2022-11-20T00:49:39.843Z,100848.81
2022-11-20T00:52:09.406Z,100842.27
2022-11-20T00:54:39.456Z,100842.96
2022-11-20T00:57:08.441Z,100844.63
2022-11-20T00:59:37.372Z,100847.41
2022-11-20T01:02:06.351Z,100837.91
2022-11-20T01:04:35.382Z,100829.86
2022-11-20T01:07:04.171Z,100826.16
2022-11-20T01:09:34.288Z,100819.55
2022-11-20T01:12:05.421Z,100820.30
2022-11-20T01:14:34.339Z,100822.71
2022-11-20T01:17:04.211Z,100833.66
2022-11-20T01:19:33.480Z,100829.26
2022-11-20T01:22:02.831Z,100838.27
2022-11-20T01:24:32.124Z,100835.05
2022-11-20T01:27:01.676Z,100835.25
2022-11-20T01:29:31.371Z,100825.11
2022-11-20T01:32:00.160Z,100819.84
2022-11-20T01:34:29.599Z,100820.81
2022-11-20T01:36:58.656Z,100825.11
2022-11-20T01:39:28.918Z,100819.53
2022-11-20T01:42:16.562Z,100822.00
2022-11-20T01:44:57.357Z,100825.06
2022-11-20T01:47:42.162Z,100838.86
2022-11-20T01:50:18.642Z,100842.12
2022-11-20T01:52:57.167Z,100841.48
2022-11-20T01:55:33.905Z,100844.16
2022-11-20T01:58:03.153Z,100848.84
2022-11-20T02:00:32.731Z,100846.53
2022-11-20T02:03:09.078Z,100845.95
2022-11-20T02:06:19.834Z,100841.81
2022-11-20T02:08:49.125Z,100851.69
2022-11-20T02:11:19.583Z,100865.11
2022-11-20T02:13:49.380Z,100870.38
2022-11-20T02:16:26.928Z,100862.70
2022-11-20T02:18:57.660Z,100848.91
2022-11-20T02:21:41.725Z,100843.43
2022-11-20T02:24:19.188Z,100862.11
2022-11-20T02:27:03.688Z,100869.58
2022-11-20T02:29:43.743Z,100868.98
2022-11-20T02:32:35.701Z,100866.69
2022-11-20T02:35:23.978Z,100867.06
2022-11-20T02:37:55.767Z,100867.92
2022-11-20T02:40:24.516Z,100868.78
2022-11-20T02:42:55.237Z,100854.88
2022-11-20T02:45:24.616Z,100863.09
2022-11-20T02:47:55.244Z,100858.21
2022-11-20T02:50:24.543Z,100863.84
2022-11-20T02:52:53.723Z,100865.09
2022-11-20T02:55:22.801Z,100856.92
2022-11-20T02:57:53.170Z,100851.72
2022-11-20T03:00:22.697Z,100851.51
2022-11-20T03:02:52.145Z,100855.05
2022-11-20T03:05:21.143Z,100862.25
2022-11-20T03:07:50.631Z,100864.77
2022-11-20T03:10:20.011Z,100869.87
2022-11-20T03:12:59.359Z,100872.07
2022-11-20T03:15:28.215Z,100870.63
2022-11-20T03:17:57.386Z,100872.45
2022-11-20T03:20:26.939Z,100870.73
2022-11-20T03:22:55.970Z,100879.64
2022-11-20T03:25:24.678Z,100894.67
2022-11-20T03:27:54.095Z,100900.31
2022-11-20T03:30:27.677Z,100898.50
2022-11-20T03:32:55.265Z,100904.24
2022-11-20T03:35:25.477Z,100908.27
2022-11-20T03:37:54.417Z,100887.86
2022-11-20T03:40:23.506Z,100890.92
2022-11-20T03:42:52.276Z,100891.68
2022-11-20T03:45:21.074Z,100881.80
2022-11-20T03:47:50.196Z,100880.94
2022-11-20T03:50:19.234Z,100887.66
2022-11-20T03:52:48.241Z,100886.20
2022-11-20T03:55:17.532Z,100882.77
2022-11-20T03:57:46.749Z,100875.19
2022-11-20T04:00:17.274Z,100881.80
2022-11-20T04:02:48.093Z,100876.05
2022-11-20T04:05:17.031Z,100878.25
2022-11-20T04:07:46.778Z,100878.36
2022-11-20T04:10:16.711Z,100877.61
2022-11-20T04:12:45.908Z,100878.95
2022-11-20T04:15:15.460Z,100874.54
2022-11-20T04:17:45.731Z,100872.66
2022-11-20T04:20:15.565Z,100878.23
2022-11-20T04:22:44.814Z,100883.98
2022-11-20T04:25:14.003Z,100881.95
2022-11-20T04:27:44.808Z,100880.87
2022-11-20T04:30:14.355Z,100882.97
2022-11-20T04:32:44.948Z,100874.81
2022-11-20T04:35:13.940Z,100870.20
2022-11-20T04:37:42.867Z,100863.97
2022-11-20T04:40:13.691Z,100858.22
2022-11-20T04:42:42.717Z,100856.50
2022-11-20T04:45:11.547Z,100848.94
2022-11-20T04:47:41.086Z,100842.97
2022-11-20T04:50:11.216Z,100839.70
2022-11-20T04:52:39.955Z,100828.84
2022-11-20T04:55:09.341Z,100829.23
2022-11-20T04:57:39.578Z,100822.52
2022-11-20T05:00:10.406Z,100816.00
2022-11-20T05:02:40.235Z,100809.77
2022-11-20T05:05:11.081Z,100814.55
2022-11-20T05:07:41.676Z,100809.06
2022-11-20T05:10:10.994Z,100806.97
2022-11-20T05:12:40.313Z,100797.09
2022-11-20T05:15:10.803Z,100800.17
2022-11-20T05:17:41.467Z,100801.84
2022-11-20T05:20:12.271Z,100809.52
2022-11-20T05:22:43.253Z,100818.97
2022-11-20T05:25:12.498Z,100820.13
2022-11-20T05:27:43.600Z,100815.78
2022-11-20T05:30:15.560Z,100802.73
2022-11-20T05:32:44.942Z,100789.67
2022-11-20T05:35:14.212Z,100781.89
2022-11-20T05:37:44.902Z,100776.78
2022-11-20T05:40:14.267Z,100788.27
2022-11-20T05:42:44.679Z,100785.37
2022-11-20T05:45:13.814Z,100787.45
2022-11-20T05:47:43.050Z,100785.74
2022-11-20T05:50:12.221Z,100786.87
2022-11-20T05:52:42.303Z,100785.30
2022-11-20T05:55:11.184Z,100807.39
2022-11-20T05:57:39.987Z,100804.96
2022-11-20T06:00:10.821Z,100799.48
2022-11-20T06:02:40.235Z,100795.94
2022-11-20T06:05:10.125Z,100799.48
2022-11-20T06:07:39.280Z,100799.52
2022-11-20T06:10:09.955Z,100800.91
2022-11-20T06:12:40.250Z,100805.09
2022-11-20T06:15:11.507Z,100802.94
2022-11-20T06:17:42.079Z,100804.28
2022-11-20T06:20:12.487Z,100805.40
2022-11-20T06:22:43.365Z,100804.43
2022-11-20T06:25:12.623Z,100795.40
2022-11-20T06:27:41.700Z,100799.09
2022-11-20T06:30:12.717Z,100801.93
2022-11-20T06:32:41.711Z,100806.22
2022-11-20T06:35:11.710Z,100798.16
2022-11-20T06:37:41.218Z,100802.08
2022-11-20T06:40:12.653Z,100802.38
2022-11-20T06:42:43.135Z,100792.52
2022-11-20T06:45:12.339Z,100778.25
2022-11-20T06:47:42.655Z,100776.45
2022-11-20T06:50:14.351Z,100783.20
2022-11-20T06:52:43.940Z,100781.89
2022-11-20T06:55:13.203Z,100780.56
2022-11-20T06:57:42.879Z,100783.89
2022-11-20T07:00:13.992Z,100788.30
2022-11-20T07:02:43.759Z,100791.23
2022-11-20T07:05:13.316Z,100779.02
2022-11-20T07:07:42.195Z,100782.94
2022-11-20T07:10:12.094Z,100782.11
2022-11-20T07:12:42.774Z,100777.84
2022-11-20T07:15:11.960Z,100772.94
2022-11-20T07:17:42.607Z,100769.65
2022-11-20T07:20:14.062Z,100765.02
2022-11-20T07:22:44.233Z,100760.86
2022-11-20T07:25:13.249Z,100752.67
2022-11-20T07:27:43.385Z,100771.02
2022-11-20T07:30:14.931Z,100768.33
2022-11-20T07:32:54.625Z,100765.52
2022-11-20T07:35:24.792Z,100769.72
2022-11-20T07:37:53.898Z,100776.08
2022-11-20T07:40:23.167Z,100779.63
2022-11-20T07:42:56.950Z,100776.45
2022-11-20T07:45:26.180Z,100780.48
2022-11-20T07:47:55.809Z,100772.61
2022-11-20T07:50:24.826Z,100765.94
2022-11-20T07:52:56.619Z,100778.80
2022-11-20T07:55:25.439Z,100786.64
2022-11-20T07:57:59.333Z,100783.81
2022-11-20T08:00:28.624Z,100770.36
2022-11-20T08:02:57.524Z,100763.03
2022-11-20T08:05:26.483Z,100761.33
2022-11-20T08:07:56.857Z,100746.17
2022-11-20T08:10:26.023Z,100749.11
2022-11-20T08:13:14.679Z,100750.83
2022-11-20T08:15:51.447Z,100741.52
2022-11-20T08:18:31.212Z,100746.30
2022-11-20T08:20:54.079Z,100736.15
2022-11-20T08:23:24.592Z,100732.73
2022-11-20T08:25:54.163Z,100729.92
2022-11-20T08:28:23.426Z,100726.13
2022-11-20T08:30:52.761Z,100727.22
2022-11-20T08:33:22.557Z,100735.19
2022-11-20T08:35:52.608Z,100735.80
2022-11-20T08:38:22.662Z,100733.23
2022-11-20T08:41:09.804Z,100722.83
2022-11-20T08:43:39.468Z,100728.20
2022-11-20T08:46:08.356Z,100731.27
2022-11-20T08:48:39.224Z,100727.84
2022-11-20T08:51:09.691Z,100727.97
2022-11-20T08:53:40.105Z,100734.34
2022-11-20T08:56:10.894Z,100737.28
2022-11-20T08:59:09.887Z,100730.55
2022-11-20T09:01:14.149Z,100729.94
2022-11-20T09:03:44.457Z,100717.94
2022-11-20T09:06:14.896Z,100710.47
2022-11-20T09:08:45.648Z,100704.11
2022-11-20T09:11:15.388Z,100678.16
2022-11-20T09:13:45.845Z,100679.75
2022-11-20T09:16:15.733Z,100685.63
2022-11-20T09:18:45.668Z,100689.30
2022-11-20T09:21:15.374Z,100692.84
2022-11-20T09:23:44.760Z,100691.86
2022-11-20T09:26:14.923Z,100684.03
2022-11-20T09:28:45.944Z,100686.23
2022-11-20T09:31:23.064Z,100684.27
2022-11-20T09:33:52.170Z,100673.87
2022-11-20T09:36:21.050Z,100664.31
2022-11-20T09:38:51.245Z,100656.51
2022-11-20T09:42:05.360Z,100657.37
2022-11-20T09:45:04.283Z,100654.80
2022-11-20T09:48:14.610Z,100653.17
2022-11-20T09:51:24.017Z,100651.09
2022-11-20T09:54:23.913Z,100646.44
2022-11-20T09:57:01.745Z,100641.20
2022-11-20T09:59:45.040Z,100633.34
2022-11-20T10:02:34.801Z,100638.52
2022-11-20T10:05:28.575Z,100635.57
2022-11-20T10:08:04.750Z,100628.70
2022-11-20T10:10:49.452Z,100625.16
2022-11-20T10:13:41.219Z,100626.02
2022-11-20T10:16:39.537Z,100619.52
2022-11-20T10:19:26.300Z,100615.23
2022-11-20T10:22:25.252Z,100603.47
2022-11-20T10:25:26.049Z,100599.80
2022-11-20T10:28:16.188Z,100596.84
2022-11-20T10:30:45.622Z,100594.16
2022-11-20T10:33:25.422Z,100584.47
2022-11-20T10:36:01.189Z,100581.77
2022-11-20T10:38:41.983Z,100585.94
2022-11-20T10:41:27.544Z,100579.83
2022-11-20T10:44:16.634Z,100581.05
2022-11-20T10:46:46.648Z,100586.67
2022-11-20T10:49:19.801Z,100593.28
2022-11-20T10:52:28.154Z,100590.33
2022-11-20T10:55:32.009Z,100590.20
2022-11-20T10:58:26.355Z,100588.13
2022-11-20T11:01:10.894Z,100579.17
2022-11-20T11:03:41.050Z,100576.09
2022-11-20T11:06:34.641Z,100572.29
2022-11-20T11:09:11.574Z,100568.87
2022-11-20T11:11:42.212Z,100554.05
2022-11-20T11:14:16.306Z,100563.97
2022-11-20T11:16:55.384Z,100570.00
2022-11-20T11:19:25.703Z,100569.28
2022-11-20T11:21:57.837Z,100554.85
2022-11-20T11:24:44.433Z,100564.77
2022-11-20T11:27:06.589Z,100560.86
2022-11-20T11:29:35.767Z,100549.23
2022-11-20T11:32:11.535Z,100543.45
2022-11-20T11:34:41.424Z,100540.14
2022-11-20T11:37:22.747Z,100549.44
2022-11-20T11:40:22.402Z,100555.45
2022-11-20T11:42:23.878Z,100541.25
2022-11-20T11:45:07.946Z,100543.20
2022-11-20T11:47:47.484Z,100552.87
2022-11-20T11:50:25.840Z,100543.69
2022-11-20T11:53:17.988Z,100546.52
2022-11-20T11:55:55.444Z,100538.30
2022-11-20T13:30:54.364Z,100448.19
2022-11-20T13:33:36.416Z,100440.98
2022-11-20T13:36:08.204Z,100430.70
2022-11-20T13:38:47.396Z,100443.80
2022-11-20T13:41:35.983Z,100440.00
2022-11-20T13:44:29.656Z,100438.03
2022-11-20T13:46:59.224Z,100441.22
2022-11-20T13:49:34.590Z,100426.16
2022-11-20T13:52:48.219Z,100425.17
2022-11-20T13:55:56.935Z,100420.88
2022-11-20T14:01:38.524Z,100408.13
2022-11-20T14:04:10.417Z,100407.17
2022-11-20T14:06:49.465Z,100409.63
2022-11-20T14:09:33.909Z,100429.59
2022-11-20T14:12:03.900Z,100428.87
2022-11-20T14:14:34.014Z,100414.08
2022-11-20T14:17:24.385Z,100416.41
2022-11-20T14:19:54.748Z,100423.52
2022-11-20T14:22:26.257Z,100438.69
2022-11-20T14:25:27.658Z,100419.12
2022-11-20T14:28:01.324Z,100429.28
2022-11-20T14:30:47.144Z,100427.58
2022-11-20T14:33:16.687Z,100440.55
2022-11-20T14:35:49.076Z,100420.12
2022-11-20T14:38:22.333Z,100412.66
2022-11-20T14:40:51.868Z,100411.19
2022-11-20T14:43:27.358Z,100411.06
2022-11-20T14:46:09.041Z,100405.31
2022-11-20T14:48:49.476Z,100403.24
2022-11-20T14:51:39.004Z,100395.79
2022-11-20T14:54:22.625Z,100390.77
2022-11-20T14:57:03.139Z,100385.02
2022-11-20T14:59:35.135Z,100384.89
2022-11-20T15:02:13.320Z,100379.02
2022-11-20T15:04:52.739Z,100369.34
2022-11-20T15:07:30.463Z,100370.30
2022-11-20T15:10:12.859Z,100361.02
2022-11-20T15:12:50.802Z,100364.07
2022-11-20T15:15:28.714Z,100349.66
2022-11-20T15:17:58.425Z,100351.12
2022-11-20T15:20:32.070Z,100351.23
2022-11-20T15:23:01.868Z,100352.21
2022-11-20T15:25:35.997Z,100346.59
2022-11-20T15:28:08.223Z,100354.80
2022-11-20T15:30:37.473Z,100353.71
2022-11-20T15:33:11.659Z,100355.91
2022-11-20T15:35:41.868Z,100348.08
2022-11-20T15:38:11.329Z,100363.36
2022-11-20T15:40:40.846Z,100362.75
2022-11-20T15:43:13.566Z,100367.89
2022-11-20T15:45:52.545Z,100373.64
2022-11-20T15:48:28.615Z,100372.30
2022-11-20T15:51:30.679Z,100378.53
2022-11-20T15:54:01.731Z,100387.09
2022-11-20T15:56:32.860Z,100393.09
2022-11-20T15:59:02.980Z,100393.72
2022-11-20T16:01:33.554Z,100400.31
2022-11-20T16:04:03.523Z,100400.42
2022-11-20T16:06:35.045Z,100403.84
2022-11-20T16:09:05.497Z,100399.68
2022-11-20T16:11:38.627Z,100391.97
2022-11-20T16:14:30.435Z,100380.58
2022-11-20T16:17:00.860Z,100355.02
2022-11-20T16:19:31.030Z,100322.12
2022-11-20T16:22:03.906Z,100311.35
2022-11-20T16:24:33.273Z,100309.77
2022-11-20T16:27:04.688Z,100322.87
2022-11-20T16:29:35.454Z,100319.09
2022-11-20T16:32:05.569Z,100322.89
2022-11-20T16:34:35.380Z,100329.64
2022-11-20T16:37:05.195Z,100326.84
2022-11-20T16:39:36.245Z,100324.28
2022-11-20T16:42:06.578Z,100322.94
2022-11-20T16:44:36.572Z,100317.33
2022-11-20T16:47:06.108Z,100318.91
2022-11-20T16:49:35.879Z,100314.38
2022-11-20T16:52:06.659Z,100308.50
2022-11-20T16:54:35.718Z,100303.36
2022-11-20T16:57:04.682Z,100303.59
2022-11-20T16:59:35.012Z,100299.78
2022-11-20T17:02:04.763Z,100304.67
2022-11-20T17:04:34.184Z,100300.64
2022-11-20T17:07:07.892Z,100303.20
2022-11-20T17:09:35.126Z,100305.89
2022-11-20T17:12:05.477Z,100312.39
2022-11-20T17:14:36.332Z,100309.83
2022-11-20T17:17:05.868Z,100315.93
2022-11-20T17:19:35.531Z,100310.31
2022-11-20T17:22:06.417Z,100304.19
2022-11-20T17:24:37.057Z,100305.03
2022-11-20T17:27:06.813Z,100309.67
2022-11-20T17:29:41.775Z,100307.70
2022-11-20T17:32:07.480Z,100297.92
2022-11-20T17:34:37.264Z,100304.03
2022-11-20T17:37:08.182Z,100295.72
2022-11-20T17:39:38.016Z,100276.29
2022-11-20T17:42:25.572Z,100272.88
2022-11-20T17:44:57.694Z,100259.78
2022-11-20T17:47:27.005Z,100240.59
2022-11-20T17:49:57.879Z,100241.08
2022-11-20T17:52:27.789Z,100250.86
2022-11-20T17:54:58.043Z,100247.67
2022-11-20T17:57:46.247Z,100256.11
2022-11-20T18:00:17.810Z,100253.91
2022-11-20T18:02:48.628Z,100270.41
2022-11-20T18:05:18.154Z,100259.78
2022-11-20T18:07:48.145Z,100259.78
2022-11-20T18:10:18.114Z,100259.55
2022-11-20T18:12:47.352Z,100268.48
2022-11-20T18:15:18.989Z,100263.45
2022-11-20T18:17:49.155Z,100252.69
2022-11-20T18:20:29.494Z,100238.75
2022-11-20T18:22:50.027Z,100241.93
2022-11-20T18:25:19.174Z,100239.60
2022-11-20T18:27:48.154Z,100232.25
2022-11-20T18:30:18.140Z,100227.72
2022-11-20T18:32:47.525Z,100226.14
2022-11-20T18:35:16.973Z,100217.45
2022-11-20T18:37:46.266Z,100220.01
2022-11-20T18:44:41.834Z,100217.11
2022-11-20T18:47:15.688Z,100214.95
2022-11-20T18:49:49.952Z,100205.04
2022-11-20T18:52:26.399Z,100207.11
2022-11-20T18:54:57.179Z,100193.52
2022-11-20T18:57:27.380Z,100200.11
2022-11-20T19:00:02.147Z,100201.23
2022-11-20T19:02:31.098Z,100208.00
2022-11-20T19:05:01.450Z,100202.61
2022-11-20T19:07:31.094Z,100192.92
2022-11-20T19:10:03.871Z,100187.77
2022-11-20T19:12:32.861Z,100187.77
2022-11-20T19:15:04.436Z,100187.02
2022-11-20T19:17:35.220Z,100188.09
2022-11-20T19:20:06.364Z,100189.53
2022-11-20T19:22:38.564Z,100181.68
2022-11-20T19:25:10.055Z,100177.86
2022-11-20T19:27:40.124Z,100179.21
2022-11-20T19:30:11.551Z,100183.02
2022-11-20T19:32:43.204Z,100189.89
2022-11-20T19:35:13.966Z,100179.61
2022-11-20T19:37:44.571Z,100172.30
2022-11-20T19:40:16.513Z,100163.02
2022-11-20T19:42:45.904Z,100151.30
2022-11-20T19:45:16.802Z,100149.11
2022-11-20T19:50:21.266Z,100145.38
2022-11-20T19:52:54.456Z,100151.35
2022-11-20T19:55:21.524Z,100156.73
2022-11-20T19:57:51.633Z,100145.11
2022-11-20T20:00:29.594Z,100129.81
2022-11-20T20:02:56.997Z,100136.41
2022-11-20T20:05:27.888Z,100128.55
2022-11-20T20:07:58.477Z,100114.65
2022-11-20T20:10:29.493Z,100113.22
2022-11-20T20:12:59.541Z,100113.70
2022-11-20T20:15:29.433Z,100119.95
2022-11-20T20:17:59.562Z,100133.62
2022-11-20T20:20:30.609Z,100125.55
2022-11-20T20:23:02.734Z,100137.53
2022-11-20T20:25:32.891Z,100140.22
2022-11-20T20:28:03.011Z,100130.80
2022-11-20T20:30:33.568Z,100135.06
2022-11-20T20:33:02.663Z,100142.92
2022-11-20T20:35:31.832Z,100139.37
2022-11-20T20:38:01.424Z,100132.51
2022-11-20T20:40:32.142Z,100128.47
2022-11-20T20:43:02.264Z,100125.28
2022-11-20T20:45:32.921Z,100124.70
2022-11-20T20:48:02.145Z,100121.65
2022-11-20T20:50:31.223Z,100116.35
2022-11-20T20:53:01.789Z,100109.84
2022-11-20T20:55:34.004Z,100102.98
2022-11-20T20:58:03.792Z,100095.27
2022-11-20T21:00:36.229Z,100110.92
2022-11-20T21:03:06.368Z,100112.77
2022-11-20T21:05:37.489Z,100112.98
2022-11-20T21:08:22.433Z,100126.31
2022-11-20T21:10:58.585Z,100132.32
2022-11-20T21:13:29.668Z,100129.41
2022-11-20T21:15:59.869Z,100125.73
2022-11-20T21:18:29.851Z,100130.98
2022-11-20T21:21:20.483Z,100140.05
2022-11-20T21:23:51.884Z,100141.61
2022-11-20T21:26:21.624Z,100136.94
2022-11-20T21:28:51.335Z,100137.30
2022-11-20T21:31:24.931Z,100133.13
2022-11-20T21:33:56.170Z,100137.44
2022-11-20T21:36:28.276Z,100138.42
2022-11-20T21:39:01.394Z,100144.52
2022-11-20T21:41:31.505Z,100139.00
2022-11-20T21:44:30.058Z,100137.03
2022-11-20T21:46:35.861Z,100144.12
2022-11-20T21:49:05.880Z,100142.05
2022-11-20T21:51:34.789Z,100141.92
2022-11-20T21:54:03.908Z,100148.02
2022-11-20T21:56:33.341Z,100160.41
2022-11-20T21:59:02.800Z,100164.85
2022-11-20T22:01:34.657Z,100152.73
2022-11-20T22:04:04.088Z,100155.79
2022-11-20T22:06:34.377Z,100148.78
2022-11-20T22:09:04.797Z,100145.33
2022-11-20T22:11:36.306Z,100139.31
2022-11-20T22:14:23.543Z,100142.99
2022-11-20T22:16:55.093Z,100147.39
2022-11-20T22:19:26.160Z,100147.03
2022-11-20T22:21:57.034Z,100135.91
2022-11-20T22:24:26.670Z,100130.25
2022-11-20T22:26:58.413Z,100114.67
2022-11-20T22:29:28.697Z,100100.21
2022-11-20T22:31:59.816Z,100106.80
2022-11-20T22:34:29.234Z,100115.66
2022-11-20T22:36:58.239Z,100118.77
2022-11-20T22:39:28.411Z,100115.34
2022-11-20T22:41:57.621Z,100105.92
2022-11-20T22:44:27.084Z,100101.89
2022-11-20T22:46:56.629Z,100103.09
2022-11-20T22:49:26.540Z,100102.60
2022-11-20T22:51:56.436Z,100108.70
2022-11-20T22:54:26.017Z,100096.23
2022-11-20T22:56:55.800Z,100097.44
2022-11-20T22:59:25.826Z,100099.28
2022-11-20T23:01:55.334Z,100098.70
2022-11-20T23:04:25.865Z,100105.84
2022-11-20T23:06:55.997Z,100109.03
2022-11-20T23:09:27.043Z,100112.44
2022-11-20T23:11:57.270Z,100114.64
2022-11-20T23:14:27.998Z,100111.72
2022-11-20T23:16:57.659Z,100110.52
2022-11-20T23:19:27.013Z,100114.05
2022-11-20T23:21:56.875Z,100112.08
2022-11-20T23:24:26.383Z,100107.91
2022-11-20T23:26:56.359Z,100116.20
2022-11-20T23:29:25.214Z,100119.12
2022-11-20T23:31:55.347Z,100111.13
2022-11-20T23:34:25.121Z,100104.39
2022-11-20T23:36:54.319Z,100100.12
2022-11-20T23:39:24.199Z,100093.67
2022-11-20T23:41:53.188Z,100081.06
2022-11-20T23:44:23.300Z,100070.51
2022-11-20T23:46:53.382Z,100065.34
2022-11-20T23:49:24.087Z,100069.02
2022-11-20T23:51:54.330Z,100072.70
2022-11-20T23:54:24.246Z,100086.17
2022-11-20T23:56:53.412Z,100090.21
2022-11-20T23:59:23.465Z,100074.27
